sensor_id;sensor_type;location;lat;lon;timestamp;temperature;humidity
10543;DHT22;5320;50.046;10.314;2022-10-28T00:01:19;14.90;99.90
10543;DHT22;5320;50.046;10.314;2022-10-28T00:03:50;14.90;99.90
10543;DHT22;5320;50.046;10.314;2022-10-28T00:06:21;15.00;99.90
10543;DHT22;5320;50.046;10.314;2022-10-28T00:08:48;14.90;99.90
10543;DHT22;5320;50.046;10.314;2022-10-28T00:11:16;14.90;99.90
10543;DHT22;5320;50.046;10.314;2022-10-28T00:13:43;14.80;99.90
10543;DHT22;5320;50.046;10.314;2022-10-28T00:16:12;14.80;99.90
10543;DHT22;5320;50.046;10.314;2022-10-28T00:18:38;14.70;99.90
10543;DHT22;5320;50.046;10.314;2022-10-28T00:21:11;14.60;99.90
10543;DHT22;5320;50.046;10.314;2022-10-28T00:23:37;14.50;99.90
10543;DHT22;5320;50.046;10.314;2022-10-28T00:26:12;14.50;99.90
10543;DHT22;5320;50.046;10.314;2022-10-28T00:28:42;14.40;99.90
10543;DHT22;5320;50.046;10.314;2022-10-28T00:31:09;14.40;99.90
10543;DHT22;5320;50.046;10.314;2022-10-28T00:33:35;14.30;99.90
10543;DHT22;5320;50.046;10.314;2022-10-28T00:36:19;14.30;99.90
10543;DHT22;5320;50.046;10.314;2022-10-28T00:38:46;14.30;99.90
10543;DHT22;5320;50.046;10.314;2022-10-28T00:41:16;14.30;99.90
10543;DHT22;5320;50.046;10.314;2022-10-28T00:46:29;14.30;99.90
10543;DHT22;5320;50.046;10.314;2022-10-28T00:49:25;14.30;99.90
10543;DHT22;5320;50.046;10.314;2022-10-28T00:51:57;14.40;99.90
10543;DHT22;5320;50.046;10.314;2022-10-28T00:54:25;14.30;99.90
10543;DHT22;5320;50.046;10.314;2022-10-28T00:56:53;14.30;99.90
10543;DHT22;5320;50.046;10.314;2022-10-28T00:59:27;14.30;99.90
10543;DHT22;5320;50.046;10.314;2022-10-28T01:01:54;14.30;99.90
10543;DHT22;5320;50.046;10.314;2022-10-28T01:04:20;14.20;99.90
10543;DHT22;5320;50.046;10.314;2022-10-28T01:06:47;14.20;99.90
10543;DHT22;5320;50.046;10.314;2022-10-28T01:09:12;14.20;99.90
10543;DHT22;5320;50.046;10.314;2022-10-28T01:11:50;14.10;99.90
10543;DHT22;5320;50.046;10.314;2022-10-28T01:16:49;14.10;99.90
10543;DHT22;5320;50.046;10.314;2022-10-28T01:22:24;14.10;99.90
10543;DHT22;5320;50.046;10.314;2022-10-28T01:27:45;14.00;99.90
10543;DHT22;5320;50.046;10.314;2022-10-28T01:30:22;14.00;99.90
10543;DHT22;5320;50.046;10.314;2022-10-28T01:33:13;14.00;99.90
10543;DHT22;5320;50.046;10.314;2022-10-28T01:35:50;14.00;99.90
10543;DHT22;5320;50.046;10.314;2022-10-28T01:38:35;13.90;99.90
10543;DHT22;5320;50.046;10.314;2022-10-28T01:41:16;14.00;99.90
10543;DHT22;5320;50.046;10.314;2022-10-28T01:43:53;14.00;99.90
10543;DHT22;5320;50.046;10.314;2022-10-28T01:46:36;13.90;99.90
10543;DHT22;5320;50.046;10.314;2022-10-28T01:49:31;14.00;99.90
10543;DHT22;5320;50.046;10.314;2022-10-28T01:52:02;14.00;99.90
10543;DHT22;5320;50.046;10.314;2022-10-28T01:54:31;13.90;99.90
10543;DHT22;5320;50.046;10.314;2022-10-28T01:56:59;13.90;99.90
10543;DHT22;5320;50.046;10.314;2022-10-28T01:59:28;13.90;99.90
10543;DHT22;5320;50.046;10.314;2022-10-28T02:01:55;13.90;99.90
10543;DHT22;5320;50.046;10.314;2022-10-28T02:04:21;13.80;99.90
10543;DHT22;5320;50.046;10.314;2022-10-28T02:06:53;13.80;99.90
10543;DHT22;5320;50.046;10.314;2022-10-28T02:20:18;13.90;99.90
10543;DHT22;5320;50.046;10.314;2022-10-28T02:23:00;13.80;99.90
10543;DHT22;5320;50.046;10.314;2022-10-28T02:25:32;13.80;99.90
10543;DHT22;5320;50.046;10.314;2022-10-28T02:28:09;13.80;99.90
10543;DHT22;5320;50.046;10.314;2022-10-28T02:30:59;13.80;99.90
10543;DHT22;5320;50.046;10.314;2022-10-28T02:33:30;13.80;99.90
10543;DHT22;5320;50.046;10.314;2022-10-28T02:36:01;13.80;99.90
10543;DHT22;5320;50.046;10.314;2022-10-28T02:38:34;13.80;99.90
10543;DHT22;5320;50.046;10.314;2022-10-28T02:41:05;13.80;99.90
10543;DHT22;5320;50.046;10.314;2022-10-28T02:43:33;13.80;99.90
10543;DHT22;5320;50.046;10.314;2022-10-28T02:46:01;13.70;99.90
10543;DHT22;5320;50.046;10.314;2022-10-28T02:48:32;13.70;99.90
10543;DHT22;5320;50.046;10.314;2022-10-28T02:51:10;13.70;99.90
10543;DHT22;5320;50.046;10.314;2022-10-28T02:53:49;13.60;99.90
10543;DHT22;5320;50.046;10.314;2022-10-28T02:56:18;13.60;99.90
10543;DHT22;5320;50.046;10.314;2022-10-28T02:58:45;13.60;99.90
10543;DHT22;5320;50.046;10.314;2022-10-28T03:01:11;13.60;99.90
10543;DHT22;5320;50.046;10.314;2022-10-28T03:03:37;13.70;99.90
10543;DHT22;5320;50.046;10.314;2022-10-28T03:06:03;13.70;99.90
10543;DHT22;5320;50.046;10.314;2022-10-28T03:08:28;13.70;99.90
10543;DHT22;5320;50.046;10.314;2022-10-28T03:10:54;13.70;99.90
10543;DHT22;5320;50.046;10.314;2022-10-28T03:13:19;13.70;99.90
10543;DHT22;5320;50.046;10.314;2022-10-28T03:15:46;13.60;99.90
10543;DHT22;5320;50.046;10.314;2022-10-28T03:18:11;13.50;99.90
10543;DHT22;5320;50.046;10.314;2022-10-28T03:20:37;13.50;99.90
10543;DHT22;5320;50.046;10.314;2022-10-28T03:23:02;13.50;99.90
10543;DHT22;5320;50.046;10.314;2022-10-28T03:25:28;13.40;99.90
10543;DHT22;5320;50.046;10.314;2022-10-28T03:27:54;13.40;99.90
10543;DHT22;5320;50.046;10.314;2022-10-28T03:30:19;13.40;99.90
10543;DHT22;5320;50.046;10.314;2022-10-28T03:32:45;13.40;99.90
10543;DHT22;5320;50.046;10.314;2022-10-28T03:35:10;13.40;99.90
10543;DHT22;5320;50.046;10.314;2022-10-28T03:37:36;13.40;99.90
10543;DHT22;5320;50.046;10.314;2022-10-28T03:40:02;13.40;99.90
10543;DHT22;5320;50.046;10.314;2022-10-28T03:42:32;13.40;99.90
10543;DHT22;5320;50.046;10.314;2022-10-28T03:44:58;13.30;99.90
10543;DHT22;5320;50.046;10.314;2022-10-28T03:47:24;13.30;99.90
10543;DHT22;5320;50.046;10.314;2022-10-28T03:49:49;13.40;99.90
10543;DHT22;5320;50.046;10.314;2022-10-28T03:52:15;13.40;99.90
10543;DHT22;5320;50.046;10.314;2022-10-28T03:54:41;13.30;99.90
10543;DHT22;5320;50.046;10.314;2022-10-28T03:57:06;13.30;99.90
10543;DHT22;5320;50.046;10.314;2022-10-28T03:59:32;13.30;99.90
10543;DHT22;5320;50.046;10.314;2022-10-28T04:01:57;13.30;99.90
10543;DHT22;5320;50.046;10.314;2022-10-28T04:04:23;13.30;99.90
10543;DHT22;5320;50.046;10.314;2022-10-28T04:06:49;13.30;99.90
10543;DHT22;5320;50.046;10.314;2022-10-28T04:09:14;13.30;99.90
10543;DHT22;5320;50.046;10.314;2022-10-28T04:11:40;13.30;99.90
10543;DHT22;5320;50.046;10.314;2022-10-28T04:14:05;13.30;99.90
10543;DHT22;5320;50.046;10.314;2022-10-28T04:16:31;13.40;99.90
10543;DHT22;5320;50.046;10.314;2022-10-28T04:18:56;13.40;99.90
10543;DHT22;5320;50.046;10.314;2022-10-28T04:21:22;13.40;99.90
10543;DHT22;5320;50.046;10.314;2022-10-28T04:23:48;13.40;99.90
10543;DHT22;5320;50.046;10.314;2022-10-28T04:26:13;13.40;99.90
10543;DHT22;5320;50.046;10.314;2022-10-28T04:28:39;13.50;99.90
10543;DHT22;5320;50.046;10.314;2022-10-28T04:31:05;13.60;99.90
10543;DHT22;5320;50.046;10.314;2022-10-28T04:33:31;13.60;99.90
10543;DHT22;5320;50.046;10.314;2022-10-28T04:35:56;13.30;99.90
10543;DHT22;5320;50.046;10.314;2022-10-28T04:38:22;13.20;99.90
10543;DHT22;5320;50.046;10.314;2022-10-28T04:40:48;13.30;99.90
10543;DHT22;5320;50.046;10.314;2022-10-28T04:43:14;13.30;99.90
10543;DHT22;5320;50.046;10.314;2022-10-28T04:45:40;13.30;99.90
10543;DHT22;5320;50.046;10.314;2022-10-28T04:48:07;13.40;99.90
10543;DHT22;5320;50.046;10.314;2022-10-28T04:50:33;13.50;99.90
10543;DHT22;5320;50.046;10.314;2022-10-28T04:52:59;13.50;99.90
10543;DHT22;5320;50.046;10.314;2022-10-28T04:55:24;13.60;99.90
10543;DHT22;5320;50.046;10.314;2022-10-28T04:57:55;13.80;99.90
10543;DHT22;5320;50.046;10.314;2022-10-28T05:00:21;13.90;99.90
10543;DHT22;5320;50.046;10.314;2022-10-28T05:02:47;13.90;99.90
10543;DHT22;5320;50.046;10.314;2022-10-28T05:05:12;13.60;99.90
10543;DHT22;5320;50.046;10.314;2022-10-28T05:07:38;13.60;99.90
10543;DHT22;5320;50.046;10.314;2022-10-28T05:10:04;13.60;99.90
10543;DHT22;5320;50.046;10.314;2022-10-28T05:12:30;13.70;99.90
10543;DHT22;5320;50.046;10.314;2022-10-28T05:14:56;13.80;99.90
10543;DHT22;5320;50.046;10.314;2022-10-28T05:17:21;13.80;99.90
10543;DHT22;5320;50.046;10.314;2022-10-28T05:19:47;13.60;99.90
10543;DHT22;5320;50.046;10.314;2022-10-28T05:22:12;13.50;99.90
10543;DHT22;5320;50.046;10.314;2022-10-28T05:24:38;13.50;99.90
10543;DHT22;5320;50.046;10.314;2022-10-28T05:27:03;13.40;99.90
10543;DHT22;5320;50.046;10.314;2022-10-28T05:29:29;13.40;99.90
10543;DHT22;5320;50.046;10.314;2022-10-28T05:31:55;13.50;99.90
10543;DHT22;5320;50.046;10.314;2022-10-28T05:34:20;13.50;99.90
10543;DHT22;5320;50.046;10.314;2022-10-28T05:36:46;13.50;99.90
10543;DHT22;5320;50.046;10.314;2022-10-28T05:39:11;13.50;99.90
10543;DHT22;5320;50.046;10.314;2022-10-28T05:41:38;13.50;99.90
10543;DHT22;5320;50.046;10.314;2022-10-28T05:44:04;13.60;99.90
10543;DHT22;5320;50.046;10.314;2022-10-28T05:46:30;13.70;99.90
10543;DHT22;5320;50.046;10.314;2022-10-28T05:48:56;13.70;99.90
10543;DHT22;5320;50.046;10.314;2022-10-28T05:51:21;13.80;99.90
10543;DHT22;5320;50.046;10.314;2022-10-28T05:53:47;13.80;99.90
10543;DHT22;5320;50.046;10.314;2022-10-28T05:56:15;13.70;99.90
10543;DHT22;5320;50.046;10.314;2022-10-28T05:58:41;13.60;99.90
10543;DHT22;5320;50.046;10.314;2022-10-28T06:01:07;13.50;99.90
10543;DHT22;5320;50.046;10.314;2022-10-28T06:03:32;13.40;99.90
10543;DHT22;5320;50.046;10.314;2022-10-28T06:05:58;13.30;99.90
10543;DHT22;5320;50.046;10.314;2022-10-28T06:08:24;13.40;99.90
10543;DHT22;5320;50.046;10.314;2022-10-28T06:10:51;13.50;99.90
10543;DHT22;5320;50.046;10.314;2022-10-28T06:13:17;13.50;99.90
10543;DHT22;5320;50.046;10.314;2022-10-28T06:15:43;13.50;99.90
10543;DHT22;5320;50.046;10.314;2022-10-28T06:18:08;13.50;99.90
10543;DHT22;5320;50.046;10.314;2022-10-28T06:20:34;13.50;99.90
10543;DHT22;5320;50.046;10.314;2022-10-28T06:22:59;13.60;99.90
10543;DHT22;5320;50.046;10.314;2022-10-28T06:25:25;13.60;99.90
10543;DHT22;5320;50.046;10.314;2022-10-28T06:27:55;13.70;99.90
10543;DHT22;5320;50.046;10.314;2022-10-28T06:30:22;13.60;99.90
10543;DHT22;5320;50.046;10.314;2022-10-28T06:32:48;13.60;99.90
10543;DHT22;5320;50.046;10.314;2022-10-28T06:35:14;13.60;99.90
10543;DHT22;5320;50.046;10.314;2022-10-28T06:37:39;13.60;99.90
10543;DHT22;5320;50.046;10.314;2022-10-28T06:40:06;13.60;99.90
10543;DHT22;5320;50.046;10.314;2022-10-28T06:42:32;13.60;99.90
10543;DHT22;5320;50.046;10.314;2022-10-28T06:44:57;13.50;99.90
10543;DHT22;5320;50.046;10.314;2022-10-28T06:47:23;13.50;99.90
10543;DHT22;5320;50.046;10.314;2022-10-28T06:49:48;13.40;99.90
10543;DHT22;5320;50.046;10.314;2022-10-28T06:52:14;13.50;99.90
10543;DHT22;5320;50.046;10.314;2022-10-28T06:54:40;13.60;99.90
10543;DHT22;5320;50.046;10.314;2022-10-28T06:57:05;13.70;99.90
10543;DHT22;5320;50.046;10.314;2022-10-28T06:59:31;13.70;99.90
10543;DHT22;5320;50.046;10.314;2022-10-28T07:01:56;13.70;99.90
10543;DHT22;5320;50.046;10.314;2022-10-28T07:04:22;13.90;99.90
10543;DHT22;5320;50.046;10.314;2022-10-28T07:06:48;13.90;99.90
10543;DHT22;5320;50.046;10.314;2022-10-28T07:09:13;14.00;99.90
10543;DHT22;5320;50.046;10.314;2022-10-28T07:11:40;14.10;99.90
10543;DHT22;5320;50.046;10.314;2022-10-28T07:14:08;14.20;99.90
10543;DHT22;5320;50.046;10.314;2022-10-28T07:16:34;14.10;99.90
10543;DHT22;5320;50.046;10.314;2022-10-28T07:19:00;14.20;99.90
10543;DHT22;5320;50.046;10.314;2022-10-28T07:21:25;14.30;99.90
10543;DHT22;5320;50.046;10.314;2022-10-28T07:23:53;14.50;99.90
10543;DHT22;5320;50.046;10.314;2022-10-28T07:26:20;14.60;99.90
10543;DHT22;5320;50.046;10.314;2022-10-28T07:28:45;14.70;99.90
10543;DHT22;5320;50.046;10.314;2022-10-28T07:31:11;14.90;99.90
10543;DHT22;5320;50.046;10.314;2022-10-28T07:33:36;15.00;99.90
10543;DHT22;5320;50.046;10.314;2022-10-28T07:36:03;15.10;99.90
10543;DHT22;5320;50.046;10.314;2022-10-28T07:38:30;15.10;99.90
10543;DHT22;5320;50.046;10.314;2022-10-28T07:40:55;15.20;99.90
10543;DHT22;5320;50.046;10.314;2022-10-28T07:43:21;15.30;99.90
10543;DHT22;5320;50.046;10.314;2022-10-28T07:45:47;15.50;99.90
10543;DHT22;5320;50.046;10.314;2022-10-28T07:48:13;15.60;99.90
10543;DHT22;5320;50.046;10.314;2022-10-28T07:50:40;15.70;99.90
10543;DHT22;5320;50.046;10.314;2022-10-28T07:53:06;15.70;99.90
10543;DHT22;5320;50.046;10.314;2022-10-28T07:55:31;15.70;99.90
10543;DHT22;5320;50.046;10.314;2022-10-28T07:57:57;15.70;99.90
10543;DHT22;5320;50.046;10.314;2022-10-28T08:00:23;15.70;99.90
10543;DHT22;5320;50.046;10.314;2022-10-28T08:02:49;15.70;99.90
10543;DHT22;5320;50.046;10.314;2022-10-28T08:05:14;15.80;99.90
10543;DHT22;5320;50.046;10.314;2022-10-28T08:07:40;15.70;99.90
10543;DHT22;5320;50.046;10.314;2022-10-28T08:10:06;15.80;99.90
10543;DHT22;5320;50.046;10.314;2022-10-28T08:12:32;15.80;99.90
10543;DHT22;5320;50.046;10.314;2022-10-28T08:14:57;15.70;99.90
10543;DHT22;5320;50.046;10.314;2022-10-28T08:17:23;15.60;99.90
10543;DHT22;5320;50.046;10.314;2022-10-28T08:19:49;15.60;99.90
10543;DHT22;5320;50.046;10.314;2022-10-28T08:22:14;15.60;99.90
10543;DHT22;5320;50.046;10.314;2022-10-28T08:24:40;15.80;99.90
10543;DHT22;5320;50.046;10.314;2022-10-28T08:27:06;16.00;99.90
10543;DHT22;5320;50.046;10.314;2022-10-28T08:29:32;16.10;99.90
10543;DHT22;5320;50.046;10.314;2022-10-28T08:31:57;16.20;99.90
10543;DHT22;5320;50.046;10.314;2022-10-28T08:34:23;16.30;99.90
10543;DHT22;5320;50.046;10.314;2022-10-28T08:36:54;16.30;99.90
10543;DHT22;5320;50.046;10.314;2022-10-28T08:39:20;16.20;99.90
10543;DHT22;5320;50.046;10.314;2022-10-28T08:41:49;16.30;99.90
10543;DHT22;5320;50.046;10.314;2022-10-28T08:47:15;16.90;99.90
10543;DHT22;5320;50.046;10.314;2022-10-28T08:49:43;17.20;99.90
10543;DHT22;5320;50.046;10.314;2022-10-28T08:52:31;17.70;99.90
10543;DHT22;5320;50.046;10.314;2022-10-28T08:55:34;18.10;99.90
10543;DHT22;5320;50.046;10.314;2022-10-28T09:00:35;18.60;99.90
10543;DHT22;5320;50.046;10.314;2022-10-28T09:05:37;19.10;99.90
10543;DHT22;5320;50.046;10.314;2022-10-28T09:08:04;19.00;99.90
10543;DHT22;5320;50.046;10.314;2022-10-28T09:10:52;18.70;99.90
10543;DHT22;5320;50.046;10.314;2022-10-28T09:13:46;18.50;99.90
10543;DHT22;5320;50.046;10.314;2022-10-28T09:16:39;18.10;99.90
10543;DHT22;5320;50.046;10.314;2022-10-28T09:22:08;17.90;99.90
10543;DHT22;5320;50.046;10.314;2022-10-28T09:24:47;18.00;99.90
10543;DHT22;5320;50.046;10.314;2022-10-28T09:32:59;17.70;99.90
10543;DHT22;5320;50.046;10.314;2022-10-28T09:35:32;17.80;99.90
10543;DHT22;5320;50.046;10.314;2022-10-28T09:38:21;17.90;99.90
10543;DHT22;5320;50.046;10.314;2022-10-28T09:40:57;17.90;99.90
10543;DHT22;5320;50.046;10.314;2022-10-28T09:43:27;18.00;99.90
10543;DHT22;5320;50.046;10.314;2022-10-28T09:46:09;18.10;99.90
10543;DHT22;5320;50.046;10.314;2022-10-28T09:48:40;18.00;99.90
10543;DHT22;5320;50.046;10.314;2022-10-28T09:51:30;18.20;99.90
10543;DHT22;5320;50.046;10.314;2022-10-28T09:53:59;18.20;99.90
10543;DHT22;5320;50.046;10.314;2022-10-28T09:56:26;18.20;99.90
10543;DHT22;5320;50.046;10.314;2022-10-28T09:58:54;18.20;99.90
10543;DHT22;5320;50.046;10.314;2022-10-28T10:01:22;18.20;99.90
10543;DHT22;5320;50.046;10.314;2022-10-28T10:03:49;18.30;99.90
10543;DHT22;5320;50.046;10.314;2022-10-28T10:06:18;18.20;99.90
10543;DHT22;5320;50.046;10.314;2022-10-28T10:08:45;18.40;99.90
10543;DHT22;5320;50.046;10.314;2022-10-28T10:13:51;19.10;99.90
10543;DHT22;5320;50.046;10.314;2022-10-28T10:16:22;19.30;99.90
10543;DHT22;5320;50.046;10.314;2022-10-28T10:18:53;19.50;99.90
10543;DHT22;5320;50.046;10.314;2022-10-28T10:21:39;19.60;99.90
10543;DHT22;5320;50.046;10.314;2022-10-28T10:24:32;19.90;99.90
10543;DHT22;5320;50.046;10.314;2022-10-28T10:27:21;20.10;99.90
10543;DHT22;5320;50.046;10.314;2022-10-28T10:29:50;20.50;99.90
10543;DHT22;5320;50.046;10.314;2022-10-28T10:32:25;20.60;99.90
10543;DHT22;5320;50.046;10.314;2022-10-28T10:37:26;21.00;99.90
10543;DHT22;5320;50.046;10.314;2022-10-28T10:40:05;21.30;99.90
10543;DHT22;5320;50.046;10.314;2022-10-28T10:42:32;21.60;99.90
10543;DHT22;5320;50.046;10.314;2022-10-28T10:45:16;21.70;99.90
10543;DHT22;5320;50.046;10.314;2022-10-28T10:47:43;21.90;99.90
10543;DHT22;5320;50.046;10.314;2022-10-28T10:50:29;22.30;93.20
10543;DHT22;5320;50.046;10.314;2022-10-28T10:52:58;22.30;99.90
10543;DHT22;5320;50.046;10.314;2022-10-28T10:57:56;22.80;63.00
10543;DHT22;5320;50.046;10.314;2022-10-28T11:00:26;22.80;59.00
10543;DHT22;5320;50.046;10.314;2022-10-28T11:02:53;23.00;80.90
10543;DHT22;5320;50.046;10.314;2022-10-28T11:05:21;23.00;67.30
10543;DHT22;5320;50.046;10.314;2022-10-28T11:07:49;23.00;82.60
10543;DHT22;5320;50.046;10.314;2022-10-28T11:10:26;23.00;63.80
10543;DHT22;5320;50.046;10.314;2022-10-28T11:13:04;22.50;83.50
10543;DHT22;5320;50.046;10.314;2022-10-28T11:15:31;22.70;92.80
10543;DHT22;5320;50.046;10.314;2022-10-28T11:20:43;23.20;77.80
10543;DHT22;5320;50.046;10.314;2022-10-28T11:23:21;23.00;56.00
10543;DHT22;5320;50.046;10.314;2022-10-28T11:25:57;22.90;69.40
10543;DHT22;5320;50.046;10.314;2022-10-28T11:34:43;22.70;59.50
10543;DHT22;5320;50.046;10.314;2022-10-28T11:50:22;23.30;75.90
10543;DHT22;5320;50.046;10.314;2022-10-28T11:53:04;23.30;67.80
10543;DHT22;5320;50.046;10.314;2022-10-28T11:58:25;23.20;68.40
10543;DHT22;5320;50.046;10.314;2022-10-28T12:12:14;24.10;25.80
10543;DHT22;5320;50.046;10.314;2022-10-28T12:15:18;23.90;24.60
10543;DHT22;5320;50.046;10.314;2022-10-28T12:20:51;23.90;33.40
10543;DHT22;5320;50.046;10.314;2022-10-28T12:23:21;23.90;21.10
10543;DHT22;5320;50.046;10.314;2022-10-28T12:25:52;23.70;31.90
10543;DHT22;5320;50.046;10.314;2022-10-28T12:28:24;23.60;38.00
10543;DHT22;5320;50.046;10.314;2022-10-28T12:30:51;23.70;37.00
10543;DHT22;5320;50.046;10.314;2022-10-28T12:33:39;23.60;38.40
10543;DHT22;5320;50.046;10.314;2022-10-28T12:38:42;23.60;47.30
10543;DHT22;5320;50.046;10.314;2022-10-28T12:41:20;23.70;43.70
10543;DHT22;5320;50.046;10.314;2022-10-28T12:43:47;23.70;45.50
10543;DHT22;5320;50.046;10.314;2022-10-28T12:49:40;23.80;37.40
10543;DHT22;5320;50.046;10.314;2022-10-28T12:55:39;23.50;53.70
10543;DHT22;5320;50.046;10.314;2022-10-28T13:00:45;23.10;61.10
10543;DHT22;5320;50.046;10.314;2022-10-28T13:03:14;23.00;64.40
10543;DHT22;5320;50.046;10.314;2022-10-28T13:20:18;22.40;97.40
10543;DHT22;5320;50.046;10.314;2022-10-28T13:27:59;22.70;97.50
10543;DHT22;5320;50.046;10.314;2022-10-28T13:30:26;22.70;96.50
10543;DHT22;5320;50.046;10.314;2022-10-28T13:33:06;22.80;99.00
10543;DHT22;5320;50.046;10.314;2022-10-28T13:35:33;23.00;92.70
10543;DHT22;5320;50.046;10.314;2022-10-28T13:38:00;22.90;96.00
10543;DHT22;5320;50.046;10.314;2022-10-28T13:42:55;22.80;97.00
10543;DHT22;5320;50.046;10.314;2022-10-28T14:04:26;22.60;99.90
10543;DHT22;5320;50.046;10.314;2022-10-28T14:07:20;22.50;99.90
10543;DHT22;5320;50.046;10.314;2022-10-28T14:09:47;22.40;99.90
10543;DHT22;5320;50.046;10.314;2022-10-28T14:17:45;22.20;99.90
10543;DHT22;5320;50.046;10.314;2022-10-28T14:20:38;22.00;99.90
10543;DHT22;5320;50.046;10.314;2022-10-28T14:46:47;21.90;99.90
10543;DHT22;5320;50.046;10.314;2022-10-28T14:49:33;21.90;99.90
10543;DHT22;5320;50.046;10.314;2022-10-28T14:52:11;21.80;99.90
10543;DHT22;5320;50.046;10.314;2022-10-28T14:54:58;21.70;99.90
10543;DHT22;5320;50.046;10.314;2022-10-28T14:57:29;21.70;99.90
10543;DHT22;5320;50.046;10.314;2022-10-28T14:59:55;21.60;99.90
10543;DHT22;5320;50.046;10.314;2022-10-28T15:02:27;21.50;99.90
10543;DHT22;5320;50.046;10.314;2022-10-28T15:07:39;21.30;99.90
10543;DHT22;5320;50.046;10.314;2022-10-28T15:10:26;21.20;99.90
10543;DHT22;5320;50.046;10.314;2022-10-28T15:12:53;21.10;99.90
10543;DHT22;5320;50.046;10.314;2022-10-28T15:15:28;21.10;99.90
10543;DHT22;5320;50.046;10.314;2022-10-28T15:17:54;21.00;99.90
10543;DHT22;5320;50.046;10.314;2022-10-28T15:20:24;20.90;99.90
10543;DHT22;5320;50.046;10.314;2022-10-28T15:22:51;20.90;99.90
10543;DHT22;5320;50.046;10.314;2022-10-28T15:25:19;20.80;99.90
10543;DHT22;5320;50.046;10.314;2022-10-28T15:27:46;20.80;99.90
10543;DHT22;5320;50.046;10.314;2022-10-28T15:30:17;20.70;99.90
10543;DHT22;5320;50.046;10.314;2022-10-28T15:32:48;20.60;99.90
10543;DHT22;5320;50.046;10.314;2022-10-28T15:37:58;20.50;99.90
10543;DHT22;5320;50.046;10.314;2022-10-28T15:40:30;20.50;99.90
10543;DHT22;5320;50.046;10.314;2022-10-28T15:45:27;20.40;99.90
10543;DHT22;5320;50.046;10.314;2022-10-28T15:47:55;20.40;99.90
10543;DHT22;5320;50.046;10.314;2022-10-28T15:50:30;20.30;99.90
10543;DHT22;5320;50.046;10.314;2022-10-28T15:53:30;20.30;99.90
10543;DHT22;5320;50.046;10.314;2022-10-28T15:58:40;20.10;99.90
10543;DHT22;5320;50.046;10.314;2022-10-28T16:01:34;20.00;99.90
10543;DHT22;5320;50.046;10.314;2022-10-28T16:04:03;20.00;99.90
10543;DHT22;5320;50.046;10.314;2022-10-28T16:06:32;20.00;99.90
10543;DHT22;5320;50.046;10.314;2022-10-28T16:09:00;20.00;99.90
10543;DHT22;5320;50.046;10.314;2022-10-28T16:11:27;20.10;99.90
10543;DHT22;5320;50.046;10.314;2022-10-28T16:13:53;20.20;99.90
10543;DHT22;5320;50.046;10.314;2022-10-28T16:16:26;20.20;99.90
10543;DHT22;5320;50.046;10.314;2022-10-28T16:19:27;20.20;99.90
10543;DHT22;5320;50.046;10.314;2022-10-28T16:21:54;20.20;99.90
10543;DHT22;5320;50.046;10.314;2022-10-28T16:24:19;20.20;99.90
10543;DHT22;5320;50.046;10.314;2022-10-28T16:26:45;20.00;99.90
10543;DHT22;5320;50.046;10.314;2022-10-28T16:29:10;19.90;99.90
10543;DHT22;5320;50.046;10.314;2022-10-28T16:31:36;19.80;99.90
10543;DHT22;5320;50.046;10.314;2022-10-28T16:34:02;19.70;99.90
10543;DHT22;5320;50.046;10.314;2022-10-28T16:36:27;19.70;99.90
10543;DHT22;5320;50.046;10.314;2022-10-28T16:38:54;19.60;99.90
10543;DHT22;5320;50.046;10.314;2022-10-28T16:41:20;19.60;99.90
10543;DHT22;5320;50.046;10.314;2022-10-28T16:43:46;19.70;99.90
10543;DHT22;5320;50.046;10.314;2022-10-28T16:46:12;19.70;99.90
10543;DHT22;5320;50.046;10.314;2022-10-28T16:48:39;19.70;99.90
10543;DHT22;5320;50.046;10.314;2022-10-28T16:51:10;19.80;99.90
10543;DHT22;5320;50.046;10.314;2022-10-28T16:53:36;19.80;99.90
10543;DHT22;5320;50.046;10.314;2022-10-28T16:56:04;19.70;99.90
10543;DHT22;5320;50.046;10.314;2022-10-28T16:58:30;19.50;99.90
10543;DHT22;5320;50.046;10.314;2022-10-28T17:00:59;19.50;99.90
10543;DHT22;5320;50.046;10.314;2022-10-28T17:03:24;19.40;99.90
10543;DHT22;5320;50.046;10.314;2022-10-28T17:05:50;19.20;99.90
10543;DHT22;5320;50.046;10.314;2022-10-28T17:08:16;19.10;99.90
10543;DHT22;5320;50.046;10.314;2022-10-28T17:10:42;19.10;99.90
10543;DHT22;5320;50.046;10.314;2022-10-28T17:13:16;19.10;99.90
10543;DHT22;5320;50.046;10.314;2022-10-28T17:15:42;18.80;99.90
10543;DHT22;5320;50.046;10.314;2022-10-28T17:18:11;18.70;99.90
10543;DHT22;5320;50.046;10.314;2022-10-28T17:20:37;18.70;99.90
10543;DHT22;5320;50.046;10.314;2022-10-28T17:23:04;18.60;99.90
10543;DHT22;5320;50.046;10.314;2022-10-28T17:25:30;18.60;99.90
10543;DHT22;5320;50.046;10.314;2022-10-28T17:27:55;18.60;99.90
10543;DHT22;5320;50.046;10.314;2022-10-28T17:30:21;18.50;99.90
10543;DHT22;5320;50.046;10.314;2022-10-28T17:32:51;18.50;99.90
10543;DHT22;5320;50.046;10.314;2022-10-28T17:35:19;18.50;99.90
10543;DHT22;5320;50.046;10.314;2022-10-28T17:37:45;18.50;99.90
10543;DHT22;5320;50.046;10.314;2022-10-28T17:40:10;18.50;99.90
10543;DHT22;5320;50.046;10.314;2022-10-28T17:42:37;18.50;99.90
10543;DHT22;5320;50.046;10.314;2022-10-28T17:45:03;18.40;99.90
10543;DHT22;5320;50.046;10.314;2022-10-28T17:47:32;18.40;99.90
10543;DHT22;5320;50.046;10.314;2022-10-28T17:49:57;18.40;99.90
10543;DHT22;5320;50.046;10.314;2022-10-28T17:52:24;18.50;99.90
10543;DHT22;5320;50.046;10.314;2022-10-28T17:54:50;18.60;99.90
10543;DHT22;5320;50.046;10.314;2022-10-28T17:57:16;18.50;99.90
10543;DHT22;5320;50.046;10.314;2022-10-28T17:59:44;18.50;99.90
10543;DHT22;5320;50.046;10.314;2022-10-28T18:02:10;18.40;99.90
10543;DHT22;5320;50.046;10.314;2022-10-28T18:04:39;18.30;99.90
10543;DHT22;5320;50.046;10.314;2022-10-28T18:07:05;18.20;99.90
10543;DHT22;5320;50.046;10.314;2022-10-28T18:09:31;18.10;99.90
10543;DHT22;5320;50.046;10.314;2022-10-28T18:11:58;18.00;99.90
10543;DHT22;5320;50.046;10.314;2022-10-28T18:14:24;18.00;99.90
10543;DHT22;5320;50.046;10.314;2022-10-28T18:16:49;18.00;99.90
10543;DHT22;5320;50.046;10.314;2022-10-28T18:19:16;17.90;99.90
10543;DHT22;5320;50.046;10.314;2022-10-28T18:21:41;17.90;99.90
10543;DHT22;5320;50.046;10.314;2022-10-28T18:24:09;17.80;99.90
10543;DHT22;5320;50.046;10.314;2022-10-28T18:26:36;17.80;99.90
10543;DHT22;5320;50.046;10.314;2022-10-28T18:29:03;17.80;99.90
10543;DHT22;5320;50.046;10.314;2022-10-28T18:31:31;17.80;99.90
10543;DHT22;5320;50.046;10.314;2022-10-28T18:33:57;17.80;99.90
10543;DHT22;5320;50.046;10.314;2022-10-28T18:36:26;17.80;99.90
10543;DHT22;5320;50.046;10.314;2022-10-28T18:38:52;17.80;99.90
10543;DHT22;5320;50.046;10.314;2022-10-28T18:41:19;17.80;99.90
10543;DHT22;5320;50.046;10.314;2022-10-28T18:43:46;17.90;99.90